الصفحة الرئيسية
METAR-TAF:

METAR-TAF

مطار :

مطار ديوري حماني

نيامي, النيجر

دائرة عرض: 13-29N, خط طول: 002-10E, ارتفاع: 223 متر

مراقبة الطقس الحالي

تاريخ ووقت الإصدار 1ساعة و 22 دقيقة قبل الساعة 11:00UTC
ريح 11 عقدة من الشمال الشرقي
درجة الحرارة 37°درجة مئوية
الرطوبة 9%
ضغط 1011 hPa
الرؤية 10 كم أو أكثر
الغيوم لا تقل 1500 م ولا وجود لمزنة ركامية السحاب الأسود

METAR: DRRN 171100Z 05011KT CAVOK 37/M01 Q1011 NOSIG

زمن: 13:22 (12:22 UTC)

توقعات

تاريخ ووقت الإصدار 1ساعة و 22 دقيقة قبل الساعة 11:00UTC
التوقعات صالحة من17 الساعة 12 UTC إلى 18 الساعة 18 UTC
ريح 8 عقدة من الشرق/الشمال الشرقي
الرؤية: 8000 متر
مؤقت
من 17 الساعة 17 UTC إلى 17 الساعة 19 UTC
الرؤية: 4500 متر
غبار

TAF: DRRN 171100Z 1712/1818 06008KT 8000 NSC TEMPO 1717/1719 4500 DU

أرصاد الطقس والتوقعات من أكثر من 4000 مطار (تقارير الطقس للمطار METAR والتنبؤ بالطقس بالمطارTAF).

المحطات المتاحة هي النقط الصفراء والحمراء على الخريطة.

حرك المؤشر فوق النقطة لمعرفة اسم المحطة.

ثم انقر لمعرفة أرصاد وتوقعات الطقس.

لتغيير الخارطة: اضغط على الأزرار الخضراء مع رمز الصليب الأسود للتكبير. على الزر الأخضر مع شرطة للتصغير، أو على الأسهم الخضراء للخرائط المجاورة.


METAR-TAF: